Terminal Aerodrome Forecast
Issued by NWS

Home | Current Version | Previous Version | Text Only | Print | Product List | Glossary On
Versions: 1 2 3 4 5 6 7 8 9 10 11 12 13 14 15 16
000
FTUS43 KOAX 281723
TAFSNY
TAF
KSNY 281723Z 2818/2918 29008KT P6SM SKC
     FM282100 28010KT P6SM VCTS BKN100CB
      TEMPO 2822/2824 28023G34KT 3SM -TSRA BKN035 OVC050CB
     FM290300 27008KT P6SM SCT100=

USA.gov is the U.S. government's official web portal to all federal, state and local government web resources and services.